createdAt,value
2023-01-18T00:00:50.786Z,0.80
2023-01-18T00:03:17.674Z,0.80
2023-01-18T00:05:44.643Z,0.90
2023-01-18T00:08:13.693Z,1.00
2023-01-18T00:10:40.673Z,1.00
2023-01-18T00:13:07.777Z,1.00
2023-01-18T00:15:35.706Z,1.00
2023-01-18T00:18:02.625Z,1.10
2023-01-18T00:20:30.455Z,1.10
2023-01-18T00:23:01.029Z,1.20
2023-01-18T00:25:28.691Z,1.20
2023-01-18T00:27:56.273Z,1.20
2023-01-18T00:30:25.682Z,1.10
2023-01-18T00:32:58.328Z,1.20
2023-01-18T00:35:26.262Z,1.10
2023-01-18T00:37:53.911Z,1.10
2023-01-18T00:40:22.060Z,1.00
2023-01-18T00:43:07.350Z,1.00
2023-01-18T00:45:34.363Z,1.00
2023-01-18T00:48:02.726Z,1.10
2023-01-18T00:50:29.883Z,1.10
2023-01-18T00:52:58.829Z,1.10
2023-01-18T00:55:26.610Z,1.00
2023-01-18T00:57:53.550Z,1.00
2023-01-18T01:00:27.026Z,1.00
2023-01-18T01:02:54.662Z,1.00
2023-01-18T01:05:42.587Z,1.00
2023-01-18T01:08:16.853Z,1.00
2023-01-18T01:10:48.841Z,1.10
2023-01-18T01:13:37.062Z,1.20
2023-01-18T01:16:27.619Z,1.10
2023-01-18T01:19:13.535Z,1.10
2023-01-18T01:21:59.467Z,1.10
2023-01-18T01:24:45.015Z,1.00
2023-01-18T01:27:12.908Z,1.00
2023-01-18T01:29:39.707Z,0.80
2023-01-18T01:32:06.980Z,0.90
2023-01-18T01:34:33.735Z,0.90
2023-01-18T01:37:00.558Z,0.80
2023-01-18T01:39:27.575Z,0.90
2023-01-18T01:41:54.438Z,0.90
2023-01-18T01:44:21.148Z,1.00
2023-01-18T01:46:58.902Z,1.00
2023-01-18T01:49:50.257Z,1.10
2023-01-18T01:52:22.170Z,1.10
2023-01-18T01:54:49.506Z,1.20
2023-01-18T01:57:21.085Z,1.10
2023-01-18T01:59:57.763Z,1.20
2023-01-18T02:02:24.518Z,1.10
2023-01-18T02:04:54.218Z,1.10
2023-01-18T02:07:23.151Z,1.20
2023-01-18T02:09:51.588Z,1.20
2023-01-18T02:12:19.097Z,1.20
2023-01-18T02:14:45.844Z,1.20
2023-01-18T02:17:32.708Z,1.30
2023-01-18T02:20:44.286Z,1.20
2023-01-18T02:23:27.606Z,1.30
2023-01-18T02:26:24.706Z,1.20
2023-01-18T02:29:09.683Z,1.20
2023-01-18T02:31:53.752Z,1.10
2023-01-18T02:34:31.403Z,1.20
2023-01-18T02:37:23.445Z,1.20
2023-01-18T02:40:10.951Z,1.20
2023-01-18T02:42:58.467Z,1.10
2023-01-18T02:46:05.559Z,1.10
2023-01-18T02:48:41.200Z,1.10
2023-01-18T02:51:08.541Z,1.00
2023-01-18T02:53:40.208Z,1.00
2023-01-18T02:56:29.673Z,0.90
2023-01-18T02:59:13.345Z,1.00
2023-01-18T03:01:51.819Z,1.00
2023-01-18T03:04:54.565Z,1.00
2023-01-18T03:07:29.760Z,1.00
2023-01-18T03:09:58.784Z,1.00
2023-01-18T03:13:01.252Z,1.00
2023-01-18T03:15:51.489Z,1.10
2023-01-18T03:18:39.202Z,1.20
2023-01-18T03:21:08.321Z,1.20
2023-01-18T03:23:40.717Z,1.20
2023-01-18T03:26:10.855Z,1.20
2023-01-18T03:29:10.576Z,1.30
2023-01-18T03:32:13.018Z,1.30
2023-01-18T03:34:44.909Z,1.30
2023-01-18T03:37:16.019Z,1.30
2023-01-18T03:39:54.327Z,1.30
2023-01-18T03:42:26.698Z,1.30
2023-01-18T03:45:20.569Z,1.40
2023-01-18T03:47:50.282Z,1.40
2023-01-18T03:50:17.965Z,1.40
2023-01-18T03:52:48.722Z,1.40
2023-01-18T03:55:23.483Z,1.50
2023-01-18T03:58:03.128Z,1.60
2023-01-18T04:00:31.471Z,1.60
2023-01-18T04:02:59.408Z,1.50
2023-01-18T04:05:26.476Z,1.60
2023-01-18T04:07:53.146Z,1.50
2023-01-18T04:10:20.170Z,1.50
2023-01-18T04:12:46.899Z,1.50
2023-01-18T04:15:13.613Z,1.50
2023-01-18T04:17:40.641Z,1.50
2023-01-18T04:20:07.894Z,1.40
2023-01-18T04:22:34.904Z,1.40
2023-01-18T04:25:01.553Z,1.40
2023-01-18T04:27:28.257Z,1.40
2023-01-18T04:29:55.030Z,1.50
2023-01-18T04:32:23.844Z,1.50
2023-01-18T04:34:50.543Z,1.40
2023-01-18T04:37:17.250Z,1.40
2023-01-18T04:39:43.967Z,1.40
2023-01-18T04:42:10.615Z,1.40
2023-01-18T04:44:37.477Z,1.40
2023-01-18T04:47:04.161Z,1.30
2023-01-18T04:49:30.916Z,1.30
2023-01-18T04:51:57.616Z,1.30
2023-01-18T04:54:24.393Z,1.30
2023-01-18T04:56:51.846Z,1.40
2023-01-18T04:59:18.621Z,1.40
2023-01-18T05:01:45.508Z,1.30
2023-01-18T05:04:12.270Z,1.40
2023-01-18T05:06:38.913Z,1.40
2023-01-18T05:09:05.607Z,1.40
2023-01-18T05:11:32.404Z,1.40
2023-01-18T05:13:59.042Z,1.40
2023-01-18T05:16:25.852Z,1.40
2023-01-18T05:18:52.740Z,1.40
2023-01-18T05:21:19.918Z,1.40
2023-01-18T05:23:46.624Z,1.50
2023-01-18T05:26:17.820Z,1.40
2023-01-18T05:28:45.450Z,1.40
2023-01-18T05:31:13.484Z,1.40
2023-01-18T05:33:40.340Z,1.40
2023-01-18T05:36:07.766Z,1.40
2023-01-18T05:38:34.453Z,1.40
2023-01-18T05:41:01.378Z,1.50
2023-01-18T05:43:29.054Z,1.50
2023-01-18T05:45:56.000Z,1.50
2023-01-18T05:48:24.015Z,1.50
2023-01-18T05:50:51.319Z,1.50
2023-01-18T05:53:20.745Z,1.50
2023-01-18T05:55:59.013Z,1.50
2023-01-18T05:58:27.539Z,1.50
2023-01-18T06:00:54.731Z,1.50
2023-01-18T06:03:22.713Z,1.50
2023-01-18T06:05:49.483Z,1.50
2023-01-18T06:08:16.167Z,1.60
2023-01-18T06:10:43.688Z,1.60
2023-01-18T06:13:10.819Z,1.60
2023-01-18T06:15:37.533Z,1.50
2023-01-18T06:18:04.375Z,1.50
2023-01-18T06:20:31.469Z,1.50
2023-01-18T06:22:58.676Z,1.60
2023-01-18T06:25:27.008Z,1.50
2023-01-18T06:27:54.009Z,1.60
2023-01-18T06:30:21.121Z,1.60
2023-01-18T06:32:49.849Z,1.60
2023-01-18T06:35:17.257Z,1.50
2023-01-18T06:37:46.451Z,1.50
2023-01-18T06:40:13.667Z,1.50
2023-01-18T06:42:41.069Z,1.50
2023-01-18T06:45:08.887Z,1.50
2023-01-18T06:47:35.678Z,1.40
2023-01-18T06:50:02.731Z,1.40
2023-01-18T06:52:29.373Z,1.40
2023-01-18T06:54:56.035Z,1.30
2023-01-18T06:57:24.003Z,1.40
2023-01-18T06:59:53.250Z,1.40
2023-01-18T07:02:21.024Z,1.50
2023-01-18T07:04:47.975Z,1.50
2023-01-18T07:07:15.313Z,1.40
2023-01-18T07:09:41.975Z,1.40
2023-01-18T07:12:09.365Z,1.40
2023-01-18T07:14:36.067Z,1.40
2023-01-18T07:17:02.875Z,1.30
2023-01-18T07:19:29.599Z,1.40
2023-01-18T07:21:56.313Z,1.50
2023-01-18T07:24:22.993Z,1.40
2023-01-18T07:26:49.638Z,1.40
2023-01-18T07:29:16.451Z,1.40
2023-01-18T07:31:43.304Z,1.40
2023-01-18T07:34:10.482Z,1.40
2023-01-18T07:36:39.281Z,1.40
2023-01-18T07:39:06.842Z,1.50
2023-01-18T07:41:34.098Z,1.50
2023-01-18T07:44:01.227Z,1.50
2023-01-18T07:46:28.424Z,1.60
2023-01-18T07:48:55.381Z,1.60
2023-01-18T07:51:22.565Z,1.60
2023-01-18T07:53:53.890Z,1.60
2023-01-18T07:56:20.660Z,1.40
2023-01-18T07:58:47.391Z,1.40
2023-01-18T08:01:21.392Z,1.40
2023-01-18T08:03:49.714Z,1.40
2023-01-18T08:06:20.710Z,1.50
2023-01-18T08:08:47.467Z,1.50
2023-01-18T08:11:14.254Z,1.50
2023-01-18T08:13:41.873Z,1.50
2023-01-18T08:16:11.732Z,1.60
2023-01-18T08:18:39.620Z,1.60
2023-01-18T08:21:11.026Z,1.50
2023-01-18T08:23:39.272Z,1.50
2023-01-18T08:26:07.865Z,1.50
2023-01-18T08:28:34.722Z,1.50
2023-01-18T08:31:10.894Z,1.50
2023-01-18T08:33:39.773Z,1.50
2023-01-18T08:36:10.584Z,1.60
2023-01-18T08:38:37.245Z,1.60
2023-01-18T08:41:04.407Z,1.70
2023-01-18T08:43:31.499Z,1.70
2023-01-18T08:45:58.876Z,1.70
2023-01-18T08:48:25.588Z,1.70
2023-01-18T08:50:52.303Z,1.70
2023-01-18T08:53:19.009Z,1.70
2023-01-18T08:55:46.826Z,1.70
2023-01-18T08:58:13.888Z,1.80
2023-01-18T09:00:40.873Z,1.80
2023-01-18T09:03:07.595Z,1.90
2023-01-18T09:05:36.731Z,1.90
2023-01-18T09:08:03.622Z,1.90
2023-01-18T09:10:30.354Z,1.90
2023-01-18T09:12:57.531Z,1.90
2023-01-18T09:15:24.395Z,2.00
2023-01-18T09:17:51.090Z,2.00
2023-01-18T09:20:19.032Z,2.10
2023-01-18T09:22:47.878Z,2.20
2023-01-18T09:25:15.057Z,2.30
2023-01-18T09:27:42.715Z,2.30
2023-01-18T09:30:10.042Z,2.30
2023-01-18T09:32:36.900Z,2.40
2023-01-18T09:35:04.071Z,2.50
2023-01-18T09:37:31.495Z,2.50
2023-01-18T09:40:00.233Z,2.50
2023-01-18T09:42:40.930Z,2.50
2023-01-18T09:45:16.989Z,2.50
2023-01-18T09:47:46.436Z,2.70
2023-01-18T09:50:17.288Z,2.80
2023-01-18T09:53:13.775Z,2.80
2023-01-18T09:55:59.660Z,2.90
2023-01-18T09:58:34.924Z,2.90
2023-01-18T10:01:18.581Z,2.80
2023-01-18T10:03:52.083Z,2.90
2023-01-18T10:06:30.374Z,2.90
2023-01-18T10:09:04.689Z,2.90
2023-01-18T10:11:50.556Z,3.00
2023-01-18T10:14:39.138Z,3.20
2023-01-18T10:17:17.762Z,3.30
2023-01-18T10:19:44.681Z,3.50
2023-01-18T10:22:19.542Z,3.50
2023-01-18T10:24:55.451Z,3.50
2023-01-18T10:27:43.918Z,3.70
2023-01-18T10:30:45.913Z,3.80
2023-01-18T10:33:23.261Z,3.90
2023-01-18T10:35:55.304Z,3.70
2023-01-18T10:38:26.279Z,3.70
2023-01-18T10:41:01.612Z,3.70
2023-01-18T10:43:31.908Z,3.50
2023-01-18T10:45:58.812Z,3.40
2023-01-18T10:48:32.354Z,3.20
2023-01-18T10:51:02.556Z,3.10
2023-01-18T10:53:39.543Z,3.00
2023-01-18T10:56:12.566Z,3.00
2023-01-18T10:58:51.330Z,3.10
2023-01-18T11:01:30.048Z,3.00
2023-01-18T11:04:08.216Z,3.00
2023-01-18T11:06:50.620Z,3.10
2023-01-18T11:09:38.784Z,3.10
2023-01-18T11:12:34.269Z,3.20
2023-01-18T11:15:16.118Z,3.20
2023-01-18T11:17:54.739Z,3.10
2023-01-18T11:20:38.639Z,3.00
2023-01-18T11:23:29.655Z,3.00
2023-01-18T11:25:58.572Z,3.00
2023-01-18T11:28:57.430Z,3.00
2023-01-18T11:31:26.999Z,3.10
2023-01-18T11:34:03.491Z,3.10
2023-01-18T11:36:50.070Z,3.30
2023-01-18T11:39:22.986Z,3.20
2023-01-18T11:41:50.143Z,3.20
2023-01-18T11:44:22.639Z,3.10
2023-01-18T11:46:58.952Z,3.20
2023-01-18T11:49:44.534Z,3.20
2023-01-18T11:52:17.080Z,3.10
2023-01-18T11:54:52.757Z,3.00
2023-01-18T11:57:20.018Z,3.00
2023-01-18T11:59:47.769Z,3.10
2023-01-18T12:02:33.359Z,3.10
2023-01-18T12:05:16.539Z,3.20
2023-01-18T12:07:49.306Z,3.30
2023-01-18T12:10:22.205Z,3.40
2023-01-18T12:13:07.500Z,3.60
2023-01-18T12:15:56.387Z,3.50
2023-01-18T12:19:01.185Z,3.60
2023-01-18T12:21:58.035Z,3.60
2023-01-18T12:24:48.021Z,3.50
2023-01-18T12:27:14.833Z,3.60
2023-01-18T12:30:15.558Z,3.90
2023-01-18T12:32:51.712Z,4.30
2023-01-18T12:35:33.744Z,4.30
2023-01-18T12:38:25.530Z,4.10
2023-01-18T12:41:23.395Z,4.00
2023-01-18T12:44:10.403Z,3.80
2023-01-18T12:47:07.381Z,3.60
2023-01-18T12:49:42.728Z,3.50
2023-01-18T12:52:18.899Z,3.50
2023-01-18T12:54:55.612Z,3.40
2023-01-18T12:57:24.012Z,3.30
2023-01-18T13:00:01.398Z,3.20
2023-01-18T13:02:33.473Z,3.20
2023-01-18T13:05:52.443Z,3.10
2023-01-18T13:08:34.793Z,2.90
2023-01-18T13:11:15.035Z,2.80
2023-01-18T13:13:44.978Z,2.80
2023-01-18T13:16:31.643Z,2.70
2023-01-18T13:19:07.109Z,2.60
2023-01-18T13:21:59.338Z,2.60
2023-01-18T13:24:48.342Z,2.60
2023-01-18T13:27:17.784Z,2.50
2023-01-18T13:29:46.229Z,2.40
2023-01-18T13:32:35.071Z,2.40
2023-01-18T13:35:20.588Z,2.50
2023-01-18T13:37:55.901Z,2.60
2023-01-18T13:40:28.164Z,2.50
2023-01-18T13:42:54.978Z,2.40
2023-01-18T13:45:26.583Z,2.70
2023-01-18T13:47:56.505Z,2.20
2023-01-18T13:50:34.356Z,2.20
2023-01-18T13:53:13.009Z,2.30
2023-01-18T13:55:54.858Z,2.40
2023-01-18T13:58:35.071Z,2.40
2023-01-18T14:01:04.336Z,2.50
2023-01-18T14:03:38.729Z,2.60
2023-01-18T14:06:09.098Z,2.50
2023-01-18T14:08:38.851Z,2.60
2023-01-18T14:11:11.132Z,2.60
2023-01-18T14:13:48.240Z,2.60
2023-01-18T14:16:27.737Z,2.50
2023-01-18T14:19:20.255Z,2.40
2023-01-18T14:22:02.111Z,2.30
2023-01-18T14:24:54.048Z,2.20
2023-01-18T14:27:25.384Z,2.20
2023-01-18T14:30:08.060Z,2.20
2023-01-18T14:32:42.840Z,2.20
2023-01-18T14:35:20.438Z,2.10
2023-01-18T14:37:47.224Z,2.10
2023-01-18T14:40:26.338Z,2.10
2023-01-18T14:43:04.743Z,2.20
2023-01-18T14:45:35.349Z,2.20
2023-01-18T14:48:17.349Z,2.30
2023-01-18T14:50:47.012Z,2.20
2023-01-18T14:53:31.645Z,2.20
2023-01-18T14:56:18.264Z,2.20
2023-01-18T14:59:12.056Z,2.20
2023-01-18T15:01:40.467Z,2.30
2023-01-18T15:04:19.681Z,2.40
2023-01-18T15:06:55.139Z,2.30
2023-01-18T15:09:24.520Z,2.30
2023-01-18T15:11:56.341Z,2.20
2023-01-18T15:14:26.720Z,2.20
2023-01-18T15:16:58.764Z,2.20
2023-01-18T15:19:44.602Z,2.10
2023-01-18T15:22:14.785Z,2.10
2023-01-18T15:24:44.135Z,2.10
2023-01-18T15:27:19.197Z,2.10
2023-01-18T15:29:55.878Z,2.10
2023-01-18T15:32:36.527Z,2.10
2023-01-18T15:35:04.757Z,2.10
2023-01-18T15:37:34.935Z,2.00
2023-01-18T15:40:03.333Z,2.00
2023-01-18T15:42:32.967Z,2.10
2023-01-18T15:45:00.310Z,2.00
2023-01-18T15:47:39.273Z,2.00
2023-01-18T15:50:18.513Z,2.00
2023-01-18T15:53:12.110Z,2.10
2023-01-18T15:55:46.236Z,2.10
2023-01-18T15:58:34.792Z,2.10
2023-01-18T16:01:27.871Z,2.10
2023-01-18T16:03:59.916Z,2.00
2023-01-18T16:06:28.856Z,2.00
2023-01-18T16:09:10.487Z,1.90
2023-01-18T16:11:41.564Z,2.00
2023-01-18T16:14:27.888Z,1.90
2023-01-18T16:17:16.449Z,1.90
2023-01-18T16:19:55.383Z,1.90
2023-01-18T16:22:24.316Z,1.90
2023-01-18T16:24:55.593Z,1.80
2023-01-18T16:27:24.828Z,1.80
2023-01-18T16:29:58.184Z,1.80
2023-01-18T16:32:24.885Z,1.70
2023-01-18T16:34:54.988Z,1.70
2023-01-18T16:37:22.338Z,1.70
2023-01-18T16:39:49.504Z,1.70
2023-01-18T16:42:18.224Z,1.70
2023-01-18T16:44:47.219Z,1.70
2023-01-18T16:47:16.297Z,1.70
2023-01-18T16:49:44.167Z,1.60
2023-01-18T16:52:13.275Z,1.50
2023-01-18T16:54:41.987Z,1.50
2023-01-18T16:57:21.873Z,1.50
2023-01-18T16:59:50.044Z,1.50
2023-01-18T17:02:16.993Z,1.50
2023-01-18T17:04:45.420Z,1.40
2023-01-18T17:07:12.366Z,1.40
2023-01-18T17:09:47.897Z,1.40
2023-01-18T17:12:15.816Z,1.40
2023-01-18T17:14:42.569Z,1.40
2023-01-18T17:17:10.652Z,1.40
2023-01-18T17:19:41.453Z,1.40
2023-01-18T17:22:08.122Z,1.40
2023-01-18T17:24:34.795Z,1.50
2023-01-18T17:27:01.614Z,1.50
2023-01-18T17:29:28.505Z,1.60
2023-01-18T17:31:55.256Z,1.60
2023-01-18T17:34:28.023Z,1.60
2023-01-18T17:36:57.007Z,1.70
2023-01-18T17:39:31.843Z,1.70
2023-01-18T17:42:14.272Z,1.70
2023-01-18T17:44:43.153Z,1.60
2023-01-18T17:47:10.010Z,1.70
2023-01-18T17:49:36.692Z,1.70
2023-01-18T17:52:03.447Z,1.70
2023-01-18T17:54:30.339Z,1.70
2023-01-18T17:56:57.102Z,1.70
2023-01-18T17:59:23.909Z,1.70
2023-01-18T18:01:50.689Z,1.70
2023-01-18T18:04:17.530Z,1.70
2023-01-18T18:06:53.716Z,1.80
2023-01-18T18:09:20.932Z,1.80
2023-01-18T18:11:48.008Z,1.70
2023-01-18T18:14:14.685Z,1.70
2023-01-18T18:16:43.778Z,1.70
2023-01-18T18:19:14.480Z,1.70
2023-01-18T18:21:42.840Z,1.60
2023-01-18T18:24:09.712Z,1.60
2023-01-18T18:26:36.481Z,1.60
2023-01-18T18:29:03.152Z,1.40
2023-01-18T18:31:29.929Z,1.40
2023-01-18T18:33:56.672Z,1.50
2023-01-18T18:36:27.613Z,1.50
2023-01-18T18:38:54.633Z,1.30
2023-01-18T18:41:21.403Z,1.30
2023-01-18T18:43:48.081Z,1.50
2023-01-18T18:46:14.883Z,1.50
2023-01-18T18:48:41.693Z,1.50
2023-01-18T18:51:08.506Z,1.60
2023-01-18T18:53:38.442Z,1.60
2023-01-18T18:56:09.222Z,1.60
2023-01-18T18:58:38.730Z,1.50
2023-01-18T19:01:07.166Z,1.40
2023-01-18T19:03:35.267Z,1.50
2023-01-18T19:06:02.401Z,1.40
2023-01-18T19:08:29.144Z,1.50
2023-01-18T19:10:57.179Z,1.30
2023-01-18T19:13:23.850Z,1.30
2023-01-18T19:15:51.414Z,1.40
2023-01-18T19:18:18.262Z,1.40
2023-01-18T19:20:45.017Z,1.40
2023-01-18T19:23:11.916Z,1.40
2023-01-18T19:25:39.389Z,1.50
2023-01-18T19:28:06.217Z,1.50
2023-01-18T19:30:33.376Z,1.50
2023-01-18T19:33:00.718Z,1.60
2023-01-18T19:35:27.745Z,1.50
2023-01-18T19:37:54.783Z,1.50
2023-01-18T19:40:22.070Z,1.50
2023-01-18T19:42:54.728Z,1.50
2023-01-18T19:45:27.895Z,1.50
2023-01-18T19:47:57.585Z,1.50
2023-01-18T19:50:25.381Z,1.10
2023-01-18T19:52:52.315Z,1.20
2023-01-18T19:55:20.882Z,1.20
2023-01-18T19:57:48.094Z,1.30
2023-01-18T20:00:16.603Z,1.50
2023-01-18T20:02:43.638Z,1.50
2023-01-18T20:05:11.025Z,1.60
2023-01-18T20:07:39.103Z,1.60
2023-01-18T20:10:07.220Z,1.60
2023-01-18T20:12:34.221Z,1.70
2023-01-18T20:15:01.193Z,1.70
2023-01-18T20:17:27.934Z,1.70
2023-01-18T20:19:54.688Z,1.80
2023-01-18T20:22:22.613Z,1.70
2023-01-18T20:24:49.725Z,1.70
2023-01-18T20:27:17.254Z,1.70
2023-01-18T20:29:44.835Z,1.60
2023-01-18T20:32:17.009Z,1.40
2023-01-18T20:34:46.487Z,1.30
2023-01-18T20:37:14.321Z,1.20
2023-01-18T20:39:41.299Z,1.20
2023-01-18T20:42:08.404Z,1.20
2023-01-18T20:44:35.633Z,1.30
2023-01-18T20:47:03.093Z,1.20
2023-01-18T20:49:38.698Z,1.10
2023-01-18T20:52:07.577Z,1.10
2023-01-18T20:54:36.398Z,1.10
2023-01-18T20:57:04.631Z,1.00
2023-01-18T20:59:31.367Z,1.10
2023-01-18T21:01:58.248Z,1.00
2023-01-18T21:04:25.552Z,0.80
2023-01-18T21:06:52.267Z,0.50
2023-01-18T21:09:18.927Z,0.40
2023-01-18T21:11:45.671Z,0.60
2023-01-18T21:14:12.752Z,0.70
2023-01-18T21:16:39.542Z,0.90
2023-01-18T21:19:06.349Z,1.00
2023-01-18T21:21:33.248Z,1.10
2023-01-18T21:24:00.181Z,1.10
2023-01-18T21:26:27.143Z,1.10
2023-01-18T21:28:54.462Z,1.20
2023-01-18T21:31:21.847Z,1.30
2023-01-18T21:33:49.168Z,1.30
2023-01-18T21:36:18.376Z,1.30
2023-01-18T21:38:45.537Z,1.30
2023-01-18T21:41:31.306Z,1.20
2023-01-18T21:44:16.829Z,1.30
2023-01-18T21:46:48.516Z,1.30
2023-01-18T21:49:51.961Z,1.40
2023-01-18T21:52:39.625Z,1.40
2023-01-18T21:55:06.418Z,1.30
2023-01-18T21:57:33.131Z,1.30
2023-01-18T21:59:59.817Z,1.40
2023-01-18T22:02:26.667Z,1.40
2023-01-18T22:05:19.552Z,1.40
2023-01-18T22:07:46.250Z,1.40
2023-01-18T22:10:12.918Z,1.40
2023-01-18T22:12:39.934Z,1.40
2023-01-18T22:15:07.137Z,1.40
2023-01-18T22:17:33.829Z,1.40
2023-01-18T22:20:01.714Z,1.30
2023-01-18T22:22:28.569Z,1.30
2023-01-18T22:24:56.493Z,1.30
2023-01-18T22:27:23.214Z,1.30
2023-01-18T22:29:49.920Z,1.30
2023-01-18T22:32:16.800Z,1.30
2023-01-18T22:34:43.472Z,1.30
2023-01-18T22:37:10.484Z,1.30
2023-01-18T22:39:37.277Z,1.30
2023-01-18T22:42:04.058Z,1.30
2023-01-18T22:44:30.818Z,1.20
2023-01-18T22:46:57.596Z,1.20
2023-01-18T22:49:24.303Z,1.20
2023-01-18T22:51:51.026Z,1.20
2023-01-18T22:54:22.602Z,1.20
2023-01-18T22:56:49.278Z,1.20
2023-01-18T22:59:15.977Z,1.20
2023-01-18T23:01:42.722Z,1.20
2023-01-18T23:04:10.126Z,1.00
2023-01-18T23:06:45.880Z,1.10
2023-01-18T23:09:17.288Z,1.00
2023-01-18T23:11:44.832Z,1.00
2023-01-18T23:14:46.826Z,0.90
2023-01-18T23:17:32.107Z,0.80
2023-01-18T23:19:58.949Z,0.90
2023-01-18T23:22:25.770Z,0.70
2023-01-18T23:24:52.769Z,0.80
2023-01-18T23:27:19.472Z,0.80
2023-01-18T23:29:55.519Z,0.60
2023-01-18T23:32:26.544Z,0.70
2023-01-18T23:34:53.908Z,0.70
2023-01-18T23:37:20.847Z,0.70
2023-01-18T23:40:06.202Z,0.60
2023-01-18T23:42:51.787Z,0.60
2023-01-18T23:45:36.907Z,0.70
2023-01-18T23:48:36.140Z,0.70
2023-01-18T23:51:22.411Z,0.60
2023-01-18T23:54:08.021Z,0.50
2023-01-18T23:56:35.055Z,0.40
2023-01-18T23:59:02.575Z,0.40
